sensor_id;sensor_type;location;lat;lon;timestamp;temperature;humidity
8965;DHT22;4517;49.020;12.066;2023-02-04T00:01:51;6.40;99.90
8965;DHT22;4517;49.020;12.066;2023-02-04T00:04:16;6.40;99.90
8965;DHT22;4517;49.020;12.066;2023-02-04T00:06:42;6.30;99.90
8965;DHT22;4517;49.020;12.066;2023-02-04T00:09:07;6.40;99.90
8965;DHT22;4517;49.020;12.066;2023-02-04T00:11:33;6.30;99.90
8965;DHT22;4517;49.020;12.066;2023-02-04T00:13:59;6.30;99.90
8965;DHT22;4517;49.020;12.066;2023-02-04T00:16:24;6.30;99.90
8965;DHT22;4517;49.020;12.066;2023-02-04T00:18:50;6.30;99.90
8965;DHT22;4517;49.020;12.066;2023-02-04T00:21:16;6.30;99.90
8965;DHT22;4517;49.020;12.066;2023-02-04T00:23:42;6.30;99.90
8965;DHT22;4517;49.020;12.066;2023-02-04T00:26:08;6.30;99.90
8965;DHT22;4517;49.020;12.066;2023-02-04T00:28:35;6.30;99.90
8965;DHT22;4517;49.020;12.066;2023-02-04T00:31:00;6.30;99.90
8965;DHT22;4517;49.020;12.066;2023-02-04T00:33:26;6.20;99.90
8965;DHT22;4517;49.020;12.066;2023-02-04T00:35:51;6.20;99.90
8965;DHT22;4517;49.020;12.066;2023-02-04T00:38:17;6.10;99.90
8965;DHT22;4517;49.020;12.066;2023-02-04T00:40:43;6.10;99.90
8965;DHT22;4517;49.020;12.066;2023-02-04T00:43:09;6.10;99.90
8965;DHT22;4517;49.020;12.066;2023-02-04T00:45:35;6.10;99.90
8965;DHT22;4517;49.020;12.066;2023-02-04T00:48:00;6.10;99.90
8965;DHT22;4517;49.020;12.066;2023-02-04T00:50:26;6.10;99.90
8965;DHT22;4517;49.020;12.066;2023-02-04T00:52:51;6.20;99.90
8965;DHT22;4517;49.020;12.066;2023-02-04T00:55:17;6.10;99.90
8965;DHT22;4517;49.020;12.066;2023-02-04T00:57:47;6.10;99.90
8965;DHT22;4517;49.020;12.066;2023-02-04T01:00:14;6.10;99.90
8965;DHT22;4517;49.020;12.066;2023-02-04T01:02:40;6.10;99.90
8965;DHT22;4517;49.020;12.066;2023-02-04T01:05:07;6.10;99.90
8965;DHT22;4517;49.020;12.066;2023-02-04T01:07:36;6.10;99.90
8965;DHT22;4517;49.020;12.066;2023-02-04T01:10:02;6.10;99.90
8965;DHT22;4517;49.020;12.066;2023-02-04T01:12:27;6.10;99.90
8965;DHT22;4517;49.020;12.066;2023-02-04T01:14:54;6.10;99.90
8965;DHT22;4517;49.020;12.066;2023-02-04T01:17:20;6.10;99.90
8965;DHT22;4517;49.020;12.066;2023-02-04T01:19:46;6.00;99.90
8965;DHT22;4517;49.020;12.066;2023-02-04T01:22:12;6.00;99.90
8965;DHT22;4517;49.020;12.066;2023-02-04T01:24:38;6.00;99.90
8965;DHT22;4517;49.020;12.066;2023-02-04T01:27:04;6.00;99.90
8965;DHT22;4517;49.020;12.066;2023-02-04T01:29:30;6.00;99.90
8965;DHT22;4517;49.020;12.066;2023-02-04T01:31:56;5.90;99.90
8965;DHT22;4517;49.020;12.066;2023-02-04T01:34:21;5.90;99.90
8965;DHT22;4517;49.020;12.066;2023-02-04T01:36:48;5.90;99.90
8965;DHT22;4517;49.020;12.066;2023-02-04T01:39:14;5.90;99.90
8965;DHT22;4517;49.020;12.066;2023-02-04T01:41:40;5.90;99.90
8965;DHT22;4517;49.020;12.066;2023-02-04T01:44:05;5.90;99.90
8965;DHT22;4517;49.020;12.066;2023-02-04T01:46:31;5.90;99.90
8965;DHT22;4517;49.020;12.066;2023-02-04T01:49:00;5.80;99.90
8965;DHT22;4517;49.020;12.066;2023-02-04T01:51:27;5.80;99.90
8965;DHT22;4517;49.020;12.066;2023-02-04T01:53:55;5.80;99.90
8965;DHT22;4517;49.020;12.066;2023-02-04T01:56:23;5.70;99.90
8965;DHT22;4517;49.020;12.066;2023-02-04T01:58:51;5.70;99.90
8965;DHT22;4517;49.020;12.066;2023-02-04T02:01:43;5.70;99.90
8965;DHT22;4517;49.020;12.066;2023-02-04T02:04:11;5.70;99.90
8965;DHT22;4517;49.020;12.066;2023-02-04T02:06:39;5.70;99.90
8965;DHT22;4517;49.020;12.066;2023-02-04T02:09:06;5.70;99.90
8965;DHT22;4517;49.020;12.066;2023-02-04T02:11:32;5.70;99.90
8965;DHT22;4517;49.020;12.066;2023-02-04T02:13:58;5.70;99.90
8965;DHT22;4517;49.020;12.066;2023-02-04T02:16:24;5.70;99.90
8965;DHT22;4517;49.020;12.066;2023-02-04T02:18:50;5.70;99.90
8965;DHT22;4517;49.020;12.066;2023-02-04T02:21:23;5.70;99.90
8965;DHT22;4517;49.020;12.066;2023-02-04T02:23:53;5.70;99.90
8965;DHT22;4517;49.020;12.066;2023-02-04T02:26:19;5.60;99.90
8965;DHT22;4517;49.020;12.066;2023-02-04T02:28:45;5.60;99.90
8965;DHT22;4517;49.020;12.066;2023-02-04T02:31:15;5.70;99.90
8965;DHT22;4517;49.020;12.066;2023-02-04T02:33:41;5.70;99.90
8965;DHT22;4517;49.020;12.066;2023-02-04T02:36:07;5.70;99.90
8965;DHT22;4517;49.020;12.066;2023-02-04T02:38:34;5.60;99.90
8965;DHT22;4517;49.020;12.066;2023-02-04T02:41:00;5.70;99.90
8965;DHT22;4517;49.020;12.066;2023-02-04T02:43:27;5.70;99.90
8965;DHT22;4517;49.020;12.066;2023-02-04T02:45:55;5.70;99.90
8965;DHT22;4517;49.020;12.066;2023-02-04T02:48:22;5.70;99.90
8965;DHT22;4517;49.020;12.066;2023-02-04T02:50:48;5.60;99.90
8965;DHT22;4517;49.020;12.066;2023-02-04T02:53:18;5.60;99.90
8965;DHT22;4517;49.020;12.066;2023-02-04T02:55:45;5.60;99.90
8965;DHT22;4517;49.020;12.066;2023-02-04T02:58:27;5.60;99.90
8965;DHT22;4517;49.020;12.066;2023-02-04T03:00:53;5.60;99.90
8965;DHT22;4517;49.020;12.066;2023-02-04T03:03:23;5.60;99.90
8965;DHT22;4517;49.020;12.066;2023-02-04T03:05:56;5.60;99.90
8965;DHT22;4517;49.020;12.066;2023-02-04T03:08:25;5.60;99.90
8965;DHT22;4517;49.020;12.066;2023-02-04T03:10:51;5.60;99.90
8965;DHT22;4517;49.020;12.066;2023-02-04T03:13:17;5.50;99.90
8965;DHT22;4517;49.020;12.066;2023-02-04T03:15:45;5.50;99.90
8965;DHT22;4517;49.020;12.066;2023-02-04T03:18:16;5.50;99.90
8965;DHT22;4517;49.020;12.066;2023-02-04T03:20:44;5.50;99.90
8965;DHT22;4517;49.020;12.066;2023-02-04T03:23:11;5.50;99.90
8965;DHT22;4517;49.020;12.066;2023-02-04T03:25:37;5.50;99.90
8965;DHT22;4517;49.020;12.066;2023-02-04T03:28:04;5.50;99.90
8965;DHT22;4517;49.020;12.066;2023-02-04T03:30:30;5.50;99.90
8965;DHT22;4517;49.020;12.066;2023-02-04T03:32:56;5.50;99.90
8965;DHT22;4517;49.020;12.066;2023-02-04T03:35:33;5.40;99.90
8965;DHT22;4517;49.020;12.066;2023-02-04T03:37:59;5.40;99.90
8965;DHT22;4517;49.020;12.066;2023-02-04T03:40:24;5.40;99.90
8965;DHT22;4517;49.020;12.066;2023-02-04T03:42:50;5.40;99.90
8965;DHT22;4517;49.020;12.066;2023-02-04T03:45:22;5.40;99.90
8965;DHT22;4517;49.020;12.066;2023-02-04T03:47:47;5.40;99.90
8965;DHT22;4517;49.020;12.066;2023-02-04T03:50:13;5.40;99.90
8965;DHT22;4517;49.020;12.066;2023-02-04T03:52:39;5.30;99.90
8965;DHT22;4517;49.020;12.066;2023-02-04T03:55:05;5.30;99.90
8965;DHT22;4517;49.020;12.066;2023-02-04T03:57:30;5.30;99.90
8965;DHT22;4517;49.020;12.066;2023-02-04T03:59:56;5.30;99.90
8965;DHT22;4517;49.020;12.066;2023-02-04T04:02:21;5.30;99.90
8965;DHT22;4517;49.020;12.066;2023-02-04T04:04:47;5.20;99.90
8965;DHT22;4517;49.020;12.066;2023-02-04T04:07:12;5.20;99.90
8965;DHT22;4517;49.020;12.066;2023-02-04T04:09:38;5.20;99.90
8965;DHT22;4517;49.020;12.066;2023-02-04T04:12:04;5.20;99.90
8965;DHT22;4517;49.020;12.066;2023-02-04T04:14:29;5.20;99.90
8965;DHT22;4517;49.020;12.066;2023-02-04T04:16:55;5.10;99.90
8965;DHT22;4517;49.020;12.066;2023-02-04T04:19:20;5.10;99.90
8965;DHT22;4517;49.020;12.066;2023-02-04T04:21:46;5.10;99.90
8965;DHT22;4517;49.020;12.066;2023-02-04T04:24:11;5.10;99.90
8965;DHT22;4517;49.020;12.066;2023-02-04T04:26:37;5.10;99.90
8965;DHT22;4517;49.020;12.066;2023-02-04T04:29:02;5.10;99.90
8965;DHT22;4517;49.020;12.066;2023-02-04T04:31:28;5.10;99.90
8965;DHT22;4517;49.020;12.066;2023-02-04T04:33:53;5.10;99.90
8965;DHT22;4517;49.020;12.066;2023-02-04T04:36:19;5.10;99.90
8965;DHT22;4517;49.020;12.066;2023-02-04T04:38:44;5.10;99.90
8965;DHT22;4517;49.020;12.066;2023-02-04T04:41:10;5.10;99.90
8965;DHT22;4517;49.020;12.066;2023-02-04T04:43:36;5.10;99.90
8965;DHT22;4517;49.020;12.066;2023-02-04T04:46:01;5.10;99.90
8965;DHT22;4517;49.020;12.066;2023-02-04T04:48:27;5.00;99.90
8965;DHT22;4517;49.020;12.066;2023-02-04T04:50:52;5.00;99.90
8965;DHT22;4517;49.020;12.066;2023-02-04T04:53:18;5.00;99.90
8965;DHT22;4517;49.020;12.066;2023-02-04T04:55:43;5.00;99.90
8965;DHT22;4517;49.020;12.066;2023-02-04T04:58:09;5.00;99.90
8965;DHT22;4517;49.020;12.066;2023-02-04T05:00:34;5.10;99.90
8965;DHT22;4517;49.020;12.066;2023-02-04T05:03:00;5.00;99.90
8965;DHT22;4517;49.020;12.066;2023-02-04T05:05:25;4.90;99.90
8965;DHT22;4517;49.020;12.066;2023-02-04T05:07:51;4.90;99.90
8965;DHT22;4517;49.020;12.066;2023-02-04T05:10:18;4.80;99.90
8965;DHT22;4517;49.020;12.066;2023-02-04T05:12:43;4.80;99.90
8965;DHT22;4517;49.020;12.066;2023-02-04T05:15:09;4.80;99.90
8965;DHT22;4517;49.020;12.066;2023-02-04T05:17:35;4.80;99.90
8965;DHT22;4517;49.020;12.066;2023-02-04T05:20:00;4.80;99.90
8965;DHT22;4517;49.020;12.066;2023-02-04T05:22:26;4.90;99.90
8965;DHT22;4517;49.020;12.066;2023-02-04T05:24:51;4.90;99.90
8965;DHT22;4517;49.020;12.066;2023-02-04T05:27:17;5.00;99.90
8965;DHT22;4517;49.020;12.066;2023-02-04T05:29:42;5.00;99.90
8965;DHT22;4517;49.020;12.066;2023-02-04T05:32:08;5.00;99.90
8965;DHT22;4517;49.020;12.066;2023-02-04T05:34:34;5.00;99.90
8965;DHT22;4517;49.020;12.066;2023-02-04T05:36:59;5.00;99.90
8965;DHT22;4517;49.020;12.066;2023-02-04T05:39:25;4.70;99.90
8965;DHT22;4517;49.020;12.066;2023-02-04T05:41:50;4.10;99.90
8965;DHT22;4517;49.020;12.066;2023-02-04T05:44:16;3.30;99.90
8965;DHT22;4517;49.020;12.066;2023-02-04T05:46:41;2.90;99.90
8965;DHT22;4517;49.020;12.066;2023-02-04T05:49:07;2.50;99.90
8965;DHT22;4517;49.020;12.066;2023-02-04T05:51:33;2.30;99.90
8965;DHT22;4517;49.020;12.066;2023-02-04T05:53:58;2.20;99.90
8965;DHT22;4517;49.020;12.066;2023-02-04T05:56:24;2.10;99.90
8965;DHT22;4517;49.020;12.066;2023-02-04T05:58:52;2.10;99.90
8965;DHT22;4517;49.020;12.066;2023-02-04T06:01:18;2.10;99.90
8965;DHT22;4517;49.020;12.066;2023-02-04T06:03:43;2.10;99.90
8965;DHT22;4517;49.020;12.066;2023-02-04T06:06:09;2.20;99.90
8965;DHT22;4517;49.020;12.066;2023-02-04T06:08:34;2.30;99.90
8965;DHT22;4517;49.020;12.066;2023-02-04T06:11:00;2.30;99.90
8965;DHT22;4517;49.020;12.066;2023-02-04T06:13:26;2.40;99.90
8965;DHT22;4517;49.020;12.066;2023-02-04T06:15:51;2.40;99.90
8965;DHT22;4517;49.020;12.066;2023-02-04T06:18:17;2.40;99.90
8965;DHT22;4517;49.020;12.066;2023-02-04T06:20:43;2.40;99.90
8965;DHT22;4517;49.020;12.066;2023-02-04T06:23:08;2.40;99.90
8965;DHT22;4517;49.020;12.066;2023-02-04T06:25:34;2.40;99.90
8965;DHT22;4517;49.020;12.066;2023-02-04T06:27:59;2.40;99.90
8965;DHT22;4517;49.020;12.066;2023-02-04T06:30:25;2.40;99.90
8965;DHT22;4517;49.020;12.066;2023-02-04T06:32:50;2.40;99.90
8965;DHT22;4517;49.020;12.066;2023-02-04T06:35:16;2.40;99.90
8965;DHT22;4517;49.020;12.066;2023-02-04T06:37:42;2.40;99.90
8965;DHT22;4517;49.020;12.066;2023-02-04T06:40:08;2.30;99.90
8965;DHT22;4517;49.020;12.066;2023-02-04T06:42:34;2.40;99.90
8965;DHT22;4517;49.020;12.066;2023-02-04T06:45:00;2.30;99.90
8965;DHT22;4517;49.020;12.066;2023-02-04T06:47:26;2.30;99.90
8965;DHT22;4517;49.020;12.066;2023-02-04T06:49:51;2.30;99.90
8965;DHT22;4517;49.020;12.066;2023-02-04T06:52:17;2.30;99.90
8965;DHT22;4517;49.020;12.066;2023-02-04T06:54:42;2.30;99.90
8965;DHT22;4517;49.020;12.066;2023-02-04T06:57:08;2.30;99.90
8965;DHT22;4517;49.020;12.066;2023-02-04T06:59:35;2.20;99.90
8965;DHT22;4517;49.020;12.066;2023-02-04T07:02:01;2.20;99.90
8965;DHT22;4517;49.020;12.066;2023-02-04T07:04:27;2.20;99.90
8965;DHT22;4517;49.020;12.066;2023-02-04T07:06:53;2.20;99.90
8965;DHT22;4517;49.020;12.066;2023-02-04T07:09:18;2.20;99.90
8965;DHT22;4517;49.020;12.066;2023-02-04T07:11:44;2.20;99.90
8965;DHT22;4517;49.020;12.066;2023-02-04T07:14:10;2.20;99.90
8965;DHT22;4517;49.020;12.066;2023-02-04T07:16:36;2.20;99.90
8965;DHT22;4517;49.020;12.066;2023-02-04T07:19:02;2.30;99.90
8965;DHT22;4517;49.020;12.066;2023-02-04T07:21:27;2.30;99.90
8965;DHT22;4517;49.020;12.066;2023-02-04T07:23:53;2.30;99.90
8965;DHT22;4517;49.020;12.066;2023-02-04T07:26:19;2.30;99.90
8965;DHT22;4517;49.020;12.066;2023-02-04T07:28:44;2.30;99.90
8965;DHT22;4517;49.020;12.066;2023-02-04T07:31:10;2.20;99.90
8965;DHT22;4517;49.020;12.066;2023-02-04T07:33:35;2.30;99.90
8965;DHT22;4517;49.020;12.066;2023-02-04T07:36:01;2.40;99.90
8965;DHT22;4517;49.020;12.066;2023-02-04T07:38:27;2.40;99.90
8965;DHT22;4517;49.020;12.066;2023-02-04T07:40:52;2.40;99.90
8965;DHT22;4517;49.020;12.066;2023-02-04T07:43:18;2.40;99.90
8965;DHT22;4517;49.020;12.066;2023-02-04T07:45:44;2.30;99.90
8965;DHT22;4517;49.020;12.066;2023-02-04T07:48:09;2.30;99.90
8965;DHT22;4517;49.020;12.066;2023-02-04T07:50:35;2.30;99.90
8965;DHT22;4517;49.020;12.066;2023-02-04T07:53:01;2.30;99.90
8965;DHT22;4517;49.020;12.066;2023-02-04T07:55:27;2.30;99.90
8965;DHT22;4517;49.020;12.066;2023-02-04T07:57:53;2.30;99.90
8965;DHT22;4517;49.020;12.066;2023-02-04T08:00:19;2.30;99.90
8965;DHT22;4517;49.020;12.066;2023-02-04T08:02:45;2.30;99.90
8965;DHT22;4517;49.020;12.066;2023-02-04T08:05:11;2.40;99.90
8965;DHT22;4517;49.020;12.066;2023-02-04T08:07:36;2.40;99.90
8965;DHT22;4517;49.020;12.066;2023-02-04T08:10:04;2.50;99.90
8965;DHT22;4517;49.020;12.066;2023-02-04T08:12:29;2.50;99.90
8965;DHT22;4517;49.020;12.066;2023-02-04T08:14:55;2.40;99.90
8965;DHT22;4517;49.020;12.066;2023-02-04T08:17:21;2.40;99.90
8965;DHT22;4517;49.020;12.066;2023-02-04T08:19:46;2.30;99.90
8965;DHT22;4517;49.020;12.066;2023-02-04T08:22:12;2.30;99.90
8965;DHT22;4517;49.020;12.066;2023-02-04T08:24:37;2.20;99.90
8965;DHT22;4517;49.020;12.066;2023-02-04T08:27:03;2.20;99.90
8965;DHT22;4517;49.020;12.066;2023-02-04T08:29:29;2.30;99.90
8965;DHT22;4517;49.020;12.066;2023-02-04T08:31:55;2.40;99.90
8965;DHT22;4517;49.020;12.066;2023-02-04T08:34:20;2.40;99.90
8965;DHT22;4517;49.020;12.066;2023-02-04T08:36:46;2.50;99.90
8965;DHT22;4517;49.020;12.066;2023-02-04T08:39:11;2.50;99.90
8965;DHT22;4517;49.020;12.066;2023-02-04T08:41:37;2.50;99.90
8965;DHT22;4517;49.020;12.066;2023-02-04T08:44:04;2.50;99.90
8965;DHT22;4517;49.020;12.066;2023-02-04T08:46:30;2.50;99.90
8965;DHT22;4517;49.020;12.066;2023-02-04T08:48:55;2.60;99.90
8965;DHT22;4517;49.020;12.066;2023-02-04T08:51:21;2.60;99.90
8965;DHT22;4517;49.020;12.066;2023-02-04T08:53:47;2.60;99.90
8965;DHT22;4517;49.020;12.066;2023-02-04T08:56:12;2.70;99.90
8965;DHT22;4517;49.020;12.066;2023-02-04T08:58:42;2.70;99.90
8965;DHT22;4517;49.020;12.066;2023-02-04T09:01:08;2.80;99.90
8965;DHT22;4517;49.020;12.066;2023-02-04T09:03:39;2.80;99.90
8965;DHT22;4517;49.020;12.066;2023-02-04T09:06:06;2.80;99.90
8965;DHT22;4517;49.020;12.066;2023-02-04T09:08:31;3.00;99.90
8965;DHT22;4517;49.020;12.066;2023-02-04T09:10:57;3.00;99.90
8965;DHT22;4517;49.020;12.066;2023-02-04T09:13:23;3.10;99.90
8965;DHT22;4517;49.020;12.066;2023-02-04T09:15:48;3.20;99.90
8965;DHT22;4517;49.020;12.066;2023-02-04T09:18:14;3.20;99.90
8965;DHT22;4517;49.020;12.066;2023-02-04T09:20:43;3.20;99.90
8965;DHT22;4517;49.020;12.066;2023-02-04T09:23:09;3.40;99.90
8965;DHT22;4517;49.020;12.066;2023-02-04T09:25:40;3.50;99.90
8965;DHT22;4517;49.020;12.066;2023-02-04T09:28:06;3.60;99.90
8965;DHT22;4517;49.020;12.066;2023-02-04T09:30:36;3.60;99.90
8965;DHT22;4517;49.020;12.066;2023-02-04T09:33:03;3.70;99.90
8965;DHT22;4517;49.020;12.066;2023-02-04T09:35:29;3.80;99.90
8965;DHT22;4517;49.020;12.066;2023-02-04T09:37:55;3.90;99.90
8965;DHT22;4517;49.020;12.066;2023-02-04T09:40:21;4.00;99.90
8965;DHT22;4517;49.020;12.066;2023-02-04T09:42:48;4.00;99.90
8965;DHT22;4517;49.020;12.066;2023-02-04T09:45:26;3.80;99.90
8965;DHT22;4517;49.020;12.066;2023-02-04T09:47:53;3.90;99.90
8965;DHT22;4517;49.020;12.066;2023-02-04T09:50:22;3.90;99.90
8965;DHT22;4517;49.020;12.066;2023-02-04T09:52:53;3.80;99.90
8965;DHT22;4517;49.020;12.066;2023-02-04T09:55:23;3.80;99.90
8965;DHT22;4517;49.020;12.066;2023-02-04T09:57:49;3.80;99.90
8965;DHT22;4517;49.020;12.066;2023-02-04T10:00:21;3.90;99.90
8965;DHT22;4517;49.020;12.066;2023-02-04T10:02:48;4.00;99.90
8965;DHT22;4517;49.020;12.066;2023-02-04T10:05:16;4.00;99.90
8965;DHT22;4517;49.020;12.066;2023-02-04T10:07:43;4.10;99.90
8965;DHT22;4517;49.020;12.066;2023-02-04T10:10:18;4.00;99.90
8965;DHT22;4517;49.020;12.066;2023-02-04T10:12:45;3.90;99.90
8965;DHT22;4517;49.020;12.066;2023-02-04T10:15:18;3.90;99.90
8965;DHT22;4517;49.020;12.066;2023-02-04T10:17:50;4.00;99.90
8965;DHT22;4517;49.020;12.066;2023-02-04T10:20:35;4.20;99.90
8965;DHT22;4517;49.020;12.066;2023-02-04T10:23:01;4.30;99.90
8965;DHT22;4517;49.020;12.066;2023-02-04T10:25:32;4.20;99.90
8965;DHT22;4517;49.020;12.066;2023-02-04T10:27:59;4.30;99.90
8965;DHT22;4517;49.020;12.066;2023-02-04T10:30:46;4.50;99.90
8965;DHT22;4517;49.020;12.066;2023-02-04T10:33:22;4.40;99.90
8965;DHT22;4517;49.020;12.066;2023-02-04T10:35:51;4.50;99.90
8965;DHT22;4517;49.020;12.066;2023-02-04T10:38:18;4.60;99.90
8965;DHT22;4517;49.020;12.066;2023-02-04T10:40:44;4.60;99.90
8965;DHT22;4517;49.020;12.066;2023-02-04T10:43:14;4.70;99.90
8965;DHT22;4517;49.020;12.066;2023-02-04T10:45:47;4.80;99.90
8965;DHT22;4517;49.020;12.066;2023-02-04T10:48:17;4.80;99.90
8965;DHT22;4517;49.020;12.066;2023-02-04T10:50:44;4.80;99.90
8965;DHT22;4517;49.020;12.066;2023-02-04T10:53:13;4.80;99.90
8965;DHT22;4517;49.020;12.066;2023-02-04T10:55:59;4.70;99.90
8965;DHT22;4517;49.020;12.066;2023-02-04T10:58:29;4.70;99.90
8965;DHT22;4517;49.020;12.066;2023-02-04T11:00:54;4.70;99.90
8965;DHT22;4517;49.020;12.066;2023-02-04T11:03:25;4.70;99.90
8965;DHT22;4517;49.020;12.066;2023-02-04T11:05:52;4.80;99.90
8965;DHT22;4517;49.020;12.066;2023-02-04T11:08:27;4.70;99.90
8965;DHT22;4517;49.020;12.066;2023-02-04T11:11:06;4.50;99.90
8965;DHT22;4517;49.020;12.066;2023-02-04T11:16:26;4.10;99.90
8965;DHT22;4517;49.020;12.066;2023-02-04T11:18:55;4.10;99.90
8965;DHT22;4517;49.020;12.066;2023-02-04T11:26:43;4.30;99.90
8965;DHT22;4517;49.020;12.066;2023-02-04T11:29:25;4.50;99.90
8965;DHT22;4517;49.020;12.066;2023-02-04T11:37:37;4.70;99.90
8965;DHT22;4517;49.020;12.066;2023-02-04T11:42:44;4.70;99.90
8965;DHT22;4517;49.020;12.066;2023-02-04T11:45:15;4.90;99.90
8965;DHT22;4517;49.020;12.066;2023-02-04T11:47:42;4.80;99.90
8965;DHT22;4517;49.020;12.066;2023-02-04T11:50:16;5.00;99.90
8965;DHT22;4517;49.020;12.066;2023-02-04T11:52:44;4.90;99.90
8965;DHT22;4517;49.020;12.066;2023-02-04T11:55:10;4.90;99.90
8965;DHT22;4517;49.020;12.066;2023-02-04T11:57:41;5.00;99.90
8965;DHT22;4517;49.020;12.066;2023-02-04T12:00:15;5.00;99.90
8965;DHT22;4517;49.020;12.066;2023-02-04T12:02:48;5.30;99.90
8965;DHT22;4517;49.020;12.066;2023-02-04T12:05:19;5.60;99.90
8965;DHT22;4517;49.020;12.066;2023-02-04T12:07:45;5.70;99.90
8965;DHT22;4517;49.020;12.066;2023-02-04T12:10:20;5.40;99.90
8965;DHT22;4517;49.020;12.066;2023-02-04T12:12:54;5.10;99.90
8965;DHT22;4517;49.020;12.066;2023-02-04T12:15:33;5.00;99.90
8965;DHT22;4517;49.020;12.066;2023-02-04T12:18:06;4.80;99.90
8965;DHT22;4517;49.020;12.066;2023-02-04T12:20:33;4.40;99.90
8965;DHT22;4517;49.020;12.066;2023-02-04T12:22:59;4.30;99.90
8965;DHT22;4517;49.020;12.066;2023-02-04T12:25:25;4.40;99.90
8965;DHT22;4517;49.020;12.066;2023-02-04T12:27:52;4.40;99.90
8965;DHT22;4517;49.020;12.066;2023-02-04T12:30:20;4.40;99.90
8965;DHT22;4517;49.020;12.066;2023-02-04T12:32:46;4.40;99.90
8965;DHT22;4517;49.020;12.066;2023-02-04T12:35:12;4.50;99.90
8965;DHT22;4517;49.020;12.066;2023-02-04T12:37:37;4.60;99.90
8965;DHT22;4517;49.020;12.066;2023-02-04T12:40:03;4.60;99.90
8965;DHT22;4517;49.020;12.066;2023-02-04T12:42:28;4.70;99.90
8965;DHT22;4517;49.020;12.066;2023-02-04T12:44:54;4.70;99.90
8965;DHT22;4517;49.020;12.066;2023-02-04T12:47:20;4.70;99.90
8965;DHT22;4517;49.020;12.066;2023-02-04T12:49:45;4.60;99.90
8965;DHT22;4517;49.020;12.066;2023-02-04T12:52:11;4.80;99.90
8965;DHT22;4517;49.020;12.066;2023-02-04T12:54:36;5.00;99.90
8965;DHT22;4517;49.020;12.066;2023-02-04T12:57:02;5.10;99.90
8965;DHT22;4517;49.020;12.066;2023-02-04T12:59:28;4.90;99.90
8965;DHT22;4517;49.020;12.066;2023-02-04T13:01:56;4.80;99.90
8965;DHT22;4517;49.020;12.066;2023-02-04T13:04:21;5.20;99.90
8965;DHT22;4517;49.020;12.066;2023-02-04T13:06:47;5.30;99.90
8965;DHT22;4517;49.020;12.066;2023-02-04T13:09:13;5.30;99.90
8965;DHT22;4517;49.020;12.066;2023-02-04T13:11:38;5.50;99.90
8965;DHT22;4517;49.020;12.066;2023-02-04T13:14:04;5.50;99.90
8965;DHT22;4517;49.020;12.066;2023-02-04T13:16:29;5.30;99.90
8965;DHT22;4517;49.020;12.066;2023-02-04T13:18:55;4.90;99.90
8965;DHT22;4517;49.020;12.066;2023-02-04T13:21:21;4.90;99.90
8965;DHT22;4517;49.020;12.066;2023-02-04T13:23:47;4.80;99.90
8965;DHT22;4517;49.020;12.066;2023-02-04T13:26:13;4.50;99.90
8965;DHT22;4517;49.020;12.066;2023-02-04T13:28:38;4.40;99.90
8965;DHT22;4517;49.020;12.066;2023-02-04T13:31:04;4.50;99.90
8965;DHT22;4517;49.020;12.066;2023-02-04T13:33:29;4.60;99.90
8965;DHT22;4517;49.020;12.066;2023-02-04T13:35:55;4.60;99.90
8965;DHT22;4517;49.020;12.066;2023-02-04T13:38:22;4.50;99.90
8965;DHT22;4517;49.020;12.066;2023-02-04T13:40:47;4.50;99.90
8965;DHT22;4517;49.020;12.066;2023-02-04T13:43:13;4.50;99.90
8965;DHT22;4517;49.020;12.066;2023-02-04T13:45:38;4.70;99.90
8965;DHT22;4517;49.020;12.066;2023-02-04T13:48:05;4.70;99.90
8965;DHT22;4517;49.020;12.066;2023-02-04T13:50:30;4.80;99.90
8965;DHT22;4517;49.020;12.066;2023-02-04T13:52:56;4.70;99.90
8965;DHT22;4517;49.020;12.066;2023-02-04T13:55:21;4.60;99.90
8965;DHT22;4517;49.020;12.066;2023-02-04T13:57:47;4.60;99.90
8965;DHT22;4517;49.020;12.066;2023-02-04T14:00:13;4.60;99.90
8965;DHT22;4517;49.020;12.066;2023-02-04T14:02:38;4.70;99.90
8965;DHT22;4517;49.020;12.066;2023-02-04T14:05:04;4.70;99.90
8965;DHT22;4517;49.020;12.066;2023-02-04T14:07:30;4.70;99.90
8965;DHT22;4517;49.020;12.066;2023-02-04T14:09:57;4.70;99.90
8965;DHT22;4517;49.020;12.066;2023-02-04T14:12:23;4.80;99.90
8965;DHT22;4517;49.020;12.066;2023-02-04T14:14:48;4.70;99.90
8965;DHT22;4517;49.020;12.066;2023-02-04T14:17:14;4.80;99.90
8965;DHT22;4517;49.020;12.066;2023-02-04T14:19:39;5.00;99.90
8965;DHT22;4517;49.020;12.066;2023-02-04T14:22:05;5.00;99.90
8965;DHT22;4517;49.020;12.066;2023-02-04T14:24:32;4.90;99.90
8965;DHT22;4517;49.020;12.066;2023-02-04T14:26:57;5.00;99.90
8965;DHT22;4517;49.020;12.066;2023-02-04T14:29:23;4.70;99.90
8965;DHT22;4517;49.020;12.066;2023-02-04T14:31:48;4.60;99.90
8965;DHT22;4517;49.020;12.066;2023-02-04T14:34:14;4.50;99.90
8965;DHT22;4517;49.020;12.066;2023-02-04T14:36:39;4.50;99.90
8965;DHT22;4517;49.020;12.066;2023-02-04T14:39:05;4.40;99.90
8965;DHT22;4517;49.020;12.066;2023-02-04T14:41:30;4.10;99.90
8965;DHT22;4517;49.020;12.066;2023-02-04T14:43:56;4.00;99.90
8965;DHT22;4517;49.020;12.066;2023-02-04T14:46:22;3.90;99.90
8965;DHT22;4517;49.020;12.066;2023-02-04T14:48:48;3.80;99.90
8965;DHT22;4517;49.020;12.066;2023-02-04T14:51:16;3.80;99.90
8965;DHT22;4517;49.020;12.066;2023-02-04T14:53:42;3.70;99.90
8965;DHT22;4517;49.020;12.066;2023-02-04T14:56:07;3.60;99.90
8965;DHT22;4517;49.020;12.066;2023-02-04T14:58:33;3.50;99.90
8965;DHT22;4517;49.020;12.066;2023-02-04T15:00:58;3.50;99.90
8965;DHT22;4517;49.020;12.066;2023-02-04T15:03:24;3.50;99.90
8965;DHT22;4517;49.020;12.066;2023-02-04T15:05:50;3.40;99.90
8965;DHT22;4517;49.020;12.066;2023-02-04T15:08:15;3.40;99.90
8965;DHT22;4517;49.020;12.066;2023-02-04T15:10:41;3.30;99.90
8965;DHT22;4517;49.020;12.066;2023-02-04T15:13:06;3.30;99.90
8965;DHT22;4517;49.020;12.066;2023-02-04T15:15:32;3.30;99.90
8965;DHT22;4517;49.020;12.066;2023-02-04T15:17:57;3.30;99.90
8965;DHT22;4517;49.020;12.066;2023-02-04T15:20:23;3.30;99.90
8965;DHT22;4517;49.020;12.066;2023-02-04T15:22:49;3.20;99.90
8965;DHT22;4517;49.020;12.066;2023-02-04T15:25:17;3.20;99.90
8965;DHT22;4517;49.020;12.066;2023-02-04T15:27:42;3.10;99.90
8965;DHT22;4517;49.020;12.066;2023-02-04T15:30:09;3.10;99.90
8965;DHT22;4517;49.020;12.066;2023-02-04T15:32:35;3.10;99.90
8965;DHT22;4517;49.020;12.066;2023-02-04T15:35:00;3.00;99.90
8965;DHT22;4517;49.020;12.066;2023-02-04T15:37:26;3.00;99.90
8965;DHT22;4517;49.020;12.066;2023-02-04T15:39:52;3.00;99.90
8965;DHT22;4517;49.020;12.066;2023-02-04T15:42:18;3.10;99.90
8965;DHT22;4517;49.020;12.066;2023-02-04T15:44:44;3.10;99.90
8965;DHT22;4517;49.020;12.066;2023-02-04T15:47:09;3.10;99.90
8965;DHT22;4517;49.020;12.066;2023-02-04T15:49:35;3.10;99.90
8965;DHT22;4517;49.020;12.066;2023-02-04T15:52:00;3.20;99.90
8965;DHT22;4517;49.020;12.066;2023-02-04T15:54:27;3.00;99.90
8965;DHT22;4517;49.020;12.066;2023-02-04T15:56:52;3.00;99.90
8965;DHT22;4517;49.020;12.066;2023-02-04T15:59:18;3.00;99.90
8965;DHT22;4517;49.020;12.066;2023-02-04T16:01:43;3.00;99.90
8965;DHT22;4517;49.020;12.066;2023-02-04T16:04:09;3.10;99.90
8965;DHT22;4517;49.020;12.066;2023-02-04T16:06:34;3.00;99.90
8965;DHT22;4517;49.020;12.066;2023-02-04T16:09:00;2.90;99.90
8965;DHT22;4517;49.020;12.066;2023-02-04T16:11:26;2.90;99.90
8965;DHT22;4517;49.020;12.066;2023-02-04T16:13:51;2.80;99.90
8965;DHT22;4517;49.020;12.066;2023-02-04T16:16:17;2.80;99.90